DLH7YF EDDM-EPWA
Flight info
| Callsign | DLH7YF |
|---|---|
| Flight time | 1h 11m |
| Altitude | 35000 |
| Route | BIBAG4N BIBAG Y133 BEPAS DCT LEGAZ DCT LAGAR DCT LUNUK N871 OKENO Q277 AGAVA |
| Aircraft | A320/M-SDE3FGHIRWY/LB1 |
Departure
| Time | 2026-05-06 09:33 |
|---|---|
| Airport | Munich Airport (EDDM) |
Arrival
| Time | 2026-05-06 10:44 |
|---|---|
| Airport | Warsaw Chopin Airport (EPWA) |
| Time | Latitude | Longitude | Altitude | Speed | Heading |
|---|---|---|---|---|---|
| 2026-05-06 09:05 | 48.35587 | 11.79989 | 1464 ft | 0 kts | 263° |
| 2026-05-06 09:20 | 48.35589 | 11.80005 | 1464 ft | 2 kts | 263° |
| 2026-05-06 09:20 | 48.35590 | 11.80027 | 1464 ft | 2 kts | 264° |
| 2026-05-06 09:20 | 48.35592 | 11.80050 | 1464 ft | 2 kts | 264° |
| 2026-05-06 09:21 | 48.35598 | 11.80069 | 1464 ft | 2 kts | 215° |
| 2026-05-06 09:21 | 48.35612 | 11.80076 | 1464 ft | 2 kts | 173° |
| 2026-05-06 09:21 | 48.35625 | 11.80072 | 1464 ft | 0 kts | 174° |
| 2026-05-06 09:21 | 48.35628 | 11.80072 | 1464 ft | 0 kts | 176° |
| 2026-05-06 09:23 | 48.35625 | 11.80072 | 1464 ft | 1 kts | 175° |
| 2026-05-06 09:23 | 48.35605 | 11.80075 | 1464 ft | 4 kts | 173° |
| 2026-05-06 09:23 | 48.35557 | 11.80084 | 1464 ft | 9 kts | 173° |
| 2026-05-06 09:24 | 48.35479 | 11.80098 | 1464 ft | 12 kts | 173° |
| 2026-05-06 09:24 | 48.35384 | 11.80121 | 1464 ft | 14 kts | 167° |
| 2026-05-06 09:24 | 48.35283 | 11.80141 | 1464 ft | 15 kts | 173° |
| 2026-05-06 09:24 | 48.35187 | 11.80150 | 1464 ft | 12 kts | 199° |
| 2026-05-06 09:25 | 48.35157 | 11.80036 | 1464 ft | 13 kts | 264° |
| 2026-05-06 09:25 | 48.35145 | 11.79886 | 1464 ft | 15 kts | 264° |
| 2026-05-06 09:25 | 48.35134 | 11.79726 | 1464 ft | 14 kts | 263° |
| 2026-05-06 09:25 | 48.35078 | 11.79654 | 1466 ft | 11 kts | 178° |
| 2026-05-06 09:26 | 48.34994 | 11.79669 | 1467 ft | 12 kts | 173° |
| 2026-05-06 09:26 | 48.34900 | 11.79686 | 1467 ft | 14 kts | 174° |
| 2026-05-06 09:26 | 48.34792 | 11.79703 | 1467 ft | 16 kts | 173° |
| 2026-05-06 09:26 | 48.34689 | 11.79674 | 1467 ft | 15 kts | 230° |
| 2026-05-06 09:27 | 48.34627 | 11.79549 | 1470 ft | 14 kts | 233° |
| 2026-05-06 09:27 | 48.34568 | 11.79430 | 1470 ft | 13 kts | 233° |
| 2026-05-06 09:27 | 48.34547 | 11.79388 | 1472 ft | 0 kts | 233° |
| 2026-05-06 09:27 | 48.34547 | 11.79387 | 1472 ft | 0 kts | 233° |
| 2026-05-06 09:28 | 48.34545 | 11.79384 | 1472 ft | 1 kts | 233° |
| 2026-05-06 09:28 | 48.34537 | 11.79368 | 1472 ft | 2 kts | 233° |
| 2026-05-06 09:28 | 48.34528 | 11.79350 | 1473 ft | 0 kts | 233° |
| 2026-05-06 09:29 | 48.34522 | 11.79337 | 1473 ft | 3 kts | 233° |
| 2026-05-06 09:29 | 48.34501 | 11.79294 | 1474 ft | 6 kts | 234° |
| 2026-05-06 09:30 | 48.34492 | 11.79276 | 1474 ft | 0 kts | 234° |
| 2026-05-06 09:30 | 48.34484 | 11.79260 | 1474 ft | 2 kts | 234° |
| 2026-05-06 09:30 | 48.34477 | 11.79246 | 1473 ft | 0 kts | 234° |
| 2026-05-06 09:31 | 48.34469 | 11.79228 | 1474 ft | 5 kts | 234° |
| 2026-05-06 09:31 | 48.34434 | 11.79161 | 1474 ft | 10 kts | 229° |
| 2026-05-06 09:31 | 48.34378 | 11.79083 | 1474 ft | 10 kts | 239° |
| 2026-05-06 09:31 | 48.34370 | 11.79037 | 1475 ft | 1 kts | 262° |
| 2026-05-06 09:32 | 48.34369 | 11.79024 | 1476 ft | 4 kts | 262° |
| 2026-05-06 09:32 | 48.34341 | 11.78670 | 1477 ft | 70 kts | 264° |
| 2026-05-06 09:32 | 48.34261 | 11.77606 | 1475 ft | 133 kts | 264° |
| 2026-05-06 09:32 | 48.34139 | 11.75995 | 1553 ft | 174 kts | 264° |
| 2026-05-06 09:33 | 48.34009 | 11.74184 | 2096 ft | 177 kts | 264° |
| 2026-05-06 09:33 | 48.33847 | 11.72353 | 2746 ft | 179 kts | 253° |
| 2026-05-06 09:33 | 48.33093 | 11.70950 | 3325 ft | 179 kts | 205° |
| 2026-05-06 09:33 | 48.31837 | 11.70691 | 3629 ft | 192 kts | 173° |
| 2026-05-06 09:34 | 48.30448 | 11.70860 | 3948 ft | 209 kts | 176° |
| 2026-05-06 09:34 | 48.28949 | 11.70938 | 4319 ft | 222 kts | 169° |
| 2026-05-06 09:34 | 48.27518 | 11.71873 | 4739 ft | 234 kts | 143° |
| 2026-05-06 09:34 | 48.26162 | 11.73355 | 5159 ft | 251 kts | 144° |
| 2026-05-06 09:35 | 48.24698 | 11.74877 | 5652 ft | 265 kts | 145° |
| 2026-05-06 09:35 | 48.23152 | 11.76448 | 6369 ft | 270 kts | 146° |
| 2026-05-06 09:35 | 48.21603 | 11.78018 | 7189 ft | 271 kts | 146° |
| 2026-05-06 09:35 | 48.20038 | 11.79613 | 7991 ft | 273 kts | 144° |
| 2026-05-06 09:36 | 48.18746 | 11.81742 | 8755 ft | 280 kts | 119° |
| 2026-05-06 09:36 | 48.18238 | 11.84532 | 9524 ft | 288 kts | 95° |
| 2026-05-06 09:36 | 48.18399 | 11.87588 | 10290 ft | 295 kts | 87° |
| 2026-05-06 09:36 | 48.18637 | 11.90636 | 10985 ft | 300 kts | 86° |
| 2026-05-06 09:37 | 48.18876 | 11.93774 | 11692 ft | 305 kts | 86° |
| 2026-05-06 09:37 | 48.19111 | 11.96943 | 12372 ft | 309 kts | 87° |
| 2026-05-06 09:37 | 48.19345 | 12.00175 | 13040 ft | 314 kts | 87° |
| 2026-05-06 09:37 | 48.19580 | 12.03477 | 13698 ft | 319 kts | 86° |
| 2026-05-06 09:38 | 48.19820 | 12.06862 | 14350 ft | 323 kts | 87° |
| 2026-05-06 09:38 | 48.20062 | 12.10288 | 14989 ft | 327 kts | 87° |
| 2026-05-06 09:38 | 48.20302 | 12.13716 | 15630 ft | 330 kts | 87° |
| 2026-05-06 09:38 | 48.20541 | 12.17173 | 16269 ft | 333 kts | 88° |
| 2026-05-06 09:39 | 48.20781 | 12.20645 | 16893 ft | 336 kts | 88° |
| 2026-05-06 09:39 | 48.21018 | 12.24116 | 17488 ft | 339 kts | 88° |
| 2026-05-06 09:39 | 48.21259 | 12.27664 | 18077 ft | 342 kts | 88° |
| 2026-05-06 09:39 | 48.21502 | 12.31220 | 18647 ft | 345 kts | 88° |
| 2026-05-06 09:40 | 48.21744 | 12.34824 | 19192 ft | 349 kts | 88° |
| 2026-05-06 09:40 | 48.21986 | 12.38417 | 19738 ft | 352 kts | 88° |
| 2026-05-06 09:40 | 48.22479 | 12.45818 | 20791 ft | 359 kts | 88° |
| 2026-05-06 09:41 | 48.22727 | 12.49567 | 21312 ft | 362 kts | 88° |
| 2026-05-06 09:41 | 48.23022 | 12.53359 | 21806 ft | 369 kts | 82° |
| 2026-05-06 09:41 | 48.23996 | 12.56944 | 22240 ft | 381 kts | 57° |
| 2026-05-06 09:41 | 48.25862 | 12.59847 | 22541 ft | 393 kts | 37° |
| 2026-05-06 09:42 | 48.28117 | 12.62286 | 22767 ft | 404 kts | 34° |
| 2026-05-06 09:42 | 48.30441 | 12.64725 | 22975 ft | 414 kts | 35° |
| 2026-05-06 09:42 | 48.32841 | 12.67305 | 23187 ft | 424 kts | 36° |
| 2026-05-06 09:42 | 48.35247 | 12.69957 | 23505 ft | 430 kts | 37° |
| 2026-05-06 09:43 | 48.37650 | 12.72734 | 23916 ft | 434 kts | 43° |
| 2026-05-06 09:43 | 48.39671 | 12.76165 | 24322 ft | 435 kts | 58° |
| 2026-05-06 09:43 | 48.41057 | 12.80170 | 24735 ft | 433 kts | 72° |
| 2026-05-06 09:43 | 48.42063 | 12.84454 | 25150 ft | 435 kts | 75° |
| 2026-05-06 09:44 | 48.43012 | 12.88819 | 25524 ft | 438 kts | 75° |
| 2026-05-06 09:44 | 48.43977 | 12.93224 | 25872 ft | 442 kts | 75° |
| 2026-05-06 09:44 | 48.44948 | 12.97557 | 26225 ft | 446 kts | 74° |
| 2026-05-06 09:44 | 48.45961 | 13.01991 | 26594 ft | 448 kts | 74° |
| 2026-05-06 09:45 | 48.46987 | 13.06451 | 26939 ft | 451 kts | 74° |
| 2026-05-06 09:45 | 48.48140 | 13.10887 | 27240 ft | 458 kts | 64° |
| 2026-05-06 09:45 | 48.49968 | 13.14784 | 27533 ft | 463 kts | 46° |
| 2026-05-06 09:45 | 48.52455 | 13.17807 | 27875 ft | 464 kts | 31° |
| 2026-05-06 09:46 | 48.55249 | 13.20297 | 28233 ft | 465 kts | 28° |
| 2026-05-06 09:46 | 48.58071 | 13.22693 | 28543 ft | 468 kts | 27° |
| 2026-05-06 09:46 | 48.60914 | 13.25121 | 28808 ft | 472 kts | 28° |
| 2026-05-06 09:46 | 48.63745 | 13.27581 | 29079 ft | 475 kts | 28° |
| 2026-05-06 09:47 | 48.66603 | 13.30099 | 29367 ft | 478 kts | 28° |
| 2026-05-06 09:47 | 48.69469 | 13.32646 | 29655 ft | 480 kts | 28° |
| 2026-05-06 09:47 | 48.72345 | 13.35216 | 29936 ft | 482 kts | 28° |
| 2026-05-06 09:47 | 48.75251 | 13.37822 | 30215 ft | 484 kts | 29° |
| 2026-05-06 09:48 | 48.78144 | 13.40420 | 30477 ft | 487 kts | 28° |
| 2026-05-06 09:48 | 48.81067 | 13.43046 | 30724 ft | 489 kts | 28° |
| 2026-05-06 09:48 | 48.83985 | 13.45676 | 30968 ft | 491 kts | 28° |
| 2026-05-06 09:48 | 48.86972 | 13.48366 | 31224 ft | 493 kts | 28° |
| 2026-05-06 09:49 | 48.89967 | 13.50941 | 31447 ft | 494 kts | 25° |
| 2026-05-06 09:49 | 48.93079 | 13.53297 | 31695 ft | 495 kts | 22° |
| 2026-05-06 09:49 | 48.96203 | 13.55521 | 31937 ft | 495 kts | 22° |
| 2026-05-06 09:49 | 48.99303 | 13.57695 | 32255 ft | 494 kts | 21° |
| 2026-05-06 09:50 | 49.02412 | 13.59874 | 32590 ft | 493 kts | 21° |
| 2026-05-06 09:50 | 49.05521 | 13.62061 | 32893 ft | 492 kts | 21° |
| 2026-05-06 09:50 | 49.08628 | 13.64254 | 33163 ft | 492 kts | 21° |
| 2026-05-06 09:50 | 49.11742 | 13.66462 | 33390 ft | 493 kts | 22° |
| 2026-05-06 09:51 | 49.14878 | 13.68688 | 33570 ft | 494 kts | 22° |
| 2026-05-06 09:51 | 49.17955 | 13.70879 | 33757 ft | 494 kts | 22° |
| 2026-05-06 09:51 | 49.21063 | 13.73096 | 33952 ft | 495 kts | 22° |
| 2026-05-06 09:51 | 49.24223 | 13.75354 | 34120 ft | 496 kts | 22° |
| 2026-05-06 09:52 | 49.27337 | 13.77580 | 34263 ft | 497 kts | 22° |
| 2026-05-06 09:52 | 49.30452 | 13.79813 | 34429 ft | 497 kts | 22° |
| 2026-05-06 09:52 | 49.33575 | 13.82053 | 34617 ft | 497 kts | 22° |
| 2026-05-06 09:52 | 49.36693 | 13.84294 | 34744 ft | 498 kts | 22° |
| 2026-05-06 09:53 | 49.42972 | 13.88815 | 34794 ft | 498 kts | 22° |
| 2026-05-06 09:53 | 49.49279 | 13.93370 | 34797 ft | 498 kts | 22° |
| 2026-05-06 09:54 | 49.55548 | 13.97909 | 34800 ft | 499 kts | 22° |
| 2026-05-06 09:54 | 49.61826 | 14.02470 | 34799 ft | 498 kts | 23° |
| 2026-05-06 09:55 | 49.68140 | 14.07071 | 34800 ft | 498 kts | 22° |
| 2026-05-06 09:55 | 49.74449 | 14.11681 | 34798 ft | 498 kts | 22° |
| 2026-05-06 09:56 | 49.80764 | 14.16308 | 34796 ft | 498 kts | 22° |
| 2026-05-06 09:56 | 49.87043 | 14.20920 | 34804 ft | 498 kts | 22° |
| 2026-05-06 09:57 | 49.93273 | 14.25509 | 34806 ft | 497 kts | 22° |
| 2026-05-06 09:57 | 49.99493 | 14.30106 | 34806 ft | 497 kts | 22° |
| 2026-05-06 09:58 | 50.05718 | 14.34717 | 34792 ft | 497 kts | 22° |
| 2026-05-06 09:58 | 50.11941 | 14.39343 | 34785 ft | 497 kts | 23° |
| 2026-05-06 09:59 | 50.18166 | 14.43984 | 34785 ft | 497 kts | 23° |
| 2026-05-06 09:59 | 50.24369 | 14.48622 | 34787 ft | 498 kts | 23° |
| 2026-05-06 10:00 | 50.30619 | 14.53310 | 34786 ft | 497 kts | 23° |
| 2026-05-06 10:00 | 50.36836 | 14.57984 | 34777 ft | 498 kts | 23° |
| 2026-05-06 10:01 | 50.43061 | 14.62680 | 34782 ft | 497 kts | 23° |
| 2026-05-06 10:01 | 50.49253 | 14.67362 | 34772 ft | 497 kts | 24° |
| 2026-05-06 10:02 | 50.53863 | 14.70857 | 34774 ft | 497 kts | 24° |
| 2026-05-06 10:02 | 50.59393 | 14.75299 | 34764 ft | 498 kts | 31° |
| 2026-05-06 10:03 | 50.64713 | 14.82201 | 34764 ft | 499 kts | 48° |
| 2026-05-06 10:03 | 50.68662 | 14.91189 | 34764 ft | 496 kts | 66° |
| 2026-05-06 10:04 | 50.71201 | 15.01159 | 34777 ft | 494 kts | 73° |
| 2026-05-06 10:04 | 50.73546 | 15.11377 | 34776 ft | 495 kts | 73° |
| 2026-05-06 10:05 | 50.75954 | 15.21629 | 34778 ft | 496 kts | 72° |
| 2026-05-06 10:05 | 50.78355 | 15.31752 | 34779 ft | 496 kts | 72° |
| 2026-05-06 10:06 | 50.80822 | 15.41926 | 34780 ft | 497 kts | 70° |
| 2026-05-06 10:06 | 50.83432 | 15.52012 | 34777 ft | 497 kts | 70° |
| 2026-05-06 10:07 | 50.86039 | 15.62117 | 34780 ft | 496 kts | 70° |
| 2026-05-06 10:07 | 50.88624 | 15.72236 | 34778 ft | 496 kts | 71° |
| 2026-05-06 10:08 | 50.91189 | 15.82364 | 34774 ft | 495 kts | 71° |
| 2026-05-06 10:08 | 50.93750 | 15.92516 | 34774 ft | 496 kts | 71° |
| 2026-05-06 10:09 | 50.96294 | 16.02647 | 34768 ft | 496 kts | 71° |
| 2026-05-06 10:09 | 50.98832 | 16.12800 | 34770 ft | 497 kts | 71° |
| 2026-05-06 10:10 | 51.01357 | 16.22945 | 34768 ft | 498 kts | 72° |
| 2026-05-06 10:10 | 51.03879 | 16.33137 | 34744 ft | 498 kts | 71° |
| 2026-05-06 10:11 | 51.06416 | 16.43437 | 34759 ft | 500 kts | 71° |
| 2026-05-06 10:11 | 51.08937 | 16.53698 | 34745 ft | 499 kts | 71° |
| 2026-05-06 10:12 | 51.11444 | 16.63974 | 34758 ft | 499 kts | 71° |
| 2026-05-06 10:12 | 51.13939 | 16.74231 | 34755 ft | 498 kts | 72° |
| 2026-05-06 10:13 | 51.16417 | 16.84464 | 34768 ft | 497 kts | 72° |
| 2026-05-06 10:13 | 51.18892 | 16.94744 | 34760 ft | 498 kts | 72° |
| 2026-05-06 10:14 | 51.21373 | 17.05098 | 34747 ft | 498 kts | 72° |
| 2026-05-06 10:14 | 51.23827 | 17.15383 | 34749 ft | 499 kts | 72° |
| 2026-05-06 10:15 | 51.26274 | 17.25685 | 34746 ft | 497 kts | 72° |
| 2026-05-06 10:15 | 51.28714 | 17.36012 | 34743 ft | 496 kts | 72° |
| 2026-05-06 10:16 | 51.31135 | 17.46308 | 34750 ft | 496 kts | 72° |
| 2026-05-06 10:16 | 51.33549 | 17.56620 | 34750 ft | 495 kts | 72° |
| 2026-05-06 10:17 | 51.35961 | 17.66984 | 34748 ft | 494 kts | 73° |
| 2026-05-06 10:17 | 51.38351 | 17.77284 | 34749 ft | 493 kts | 73° |
| 2026-05-06 10:18 | 51.40717 | 17.87543 | 34744 ft | 492 kts | 73° |
| 2026-05-06 10:18 | 51.43082 | 17.97847 | 34753 ft | 492 kts | 73° |
| 2026-05-06 10:19 | 51.45432 | 18.08133 | 34748 ft | 492 kts | 73° |
| 2026-05-06 10:19 | 51.47774 | 18.18441 | 34749 ft | 491 kts | 73° |
| 2026-05-06 10:20 | 51.50093 | 18.28681 | 34742 ft | 489 kts | 73° |
| 2026-05-06 10:20 | 51.52396 | 18.38926 | 34751 ft | 489 kts | 73° |
| 2026-05-06 10:21 | 51.53532 | 18.44000 | 34491 ft | 490 kts | 73° |
| 2026-05-06 10:21 | 51.54645 | 18.49147 | 33954 ft | 487 kts | 75° |
| 2026-05-06 10:21 | 51.55569 | 18.54329 | 33273 ft | 484 kts | 79° |
| 2026-05-06 10:21 | 51.56290 | 18.59629 | 32511 ft | 483 kts | 83° |
| 2026-05-06 10:22 | 51.56796 | 18.64937 | 31726 ft | 482 kts | 86° |
| 2026-05-06 10:22 | 51.57087 | 18.70210 | 31121 ft | 476 kts | 91° |
| 2026-05-06 10:22 | 51.57200 | 18.75536 | 30629 ft | 469 kts | 93° |
| 2026-05-06 10:22 | 51.57259 | 18.80734 | 30114 ft | 463 kts | 94° |
| 2026-05-06 10:23 | 51.57310 | 18.85880 | 29628 ft | 457 kts | 93° |
| 2026-05-06 10:23 | 51.57359 | 18.90921 | 29136 ft | 452 kts | 93° |
| 2026-05-06 10:23 | 51.57412 | 18.96012 | 28656 ft | 447 kts | 93° |
| 2026-05-06 10:23 | 51.57464 | 19.00909 | 28191 ft | 442 kts | 93° |
| 2026-05-06 10:24 | 51.57515 | 19.05847 | 27723 ft | 437 kts | 93° |
| 2026-05-06 10:24 | 51.57566 | 19.10705 | 27250 ft | 433 kts | 92° |
| 2026-05-06 10:24 | 51.57614 | 19.15533 | 26788 ft | 428 kts | 92° |
| 2026-05-06 10:24 | 51.57659 | 19.20217 | 26338 ft | 424 kts | 92° |
| 2026-05-06 10:25 | 51.57703 | 19.24913 | 25881 ft | 420 kts | 92° |
| 2026-05-06 10:25 | 51.57746 | 19.29631 | 25406 ft | 417 kts | 92° |
| 2026-05-06 10:25 | 51.57784 | 19.34197 | 24948 ft | 414 kts | 92° |
| 2026-05-06 10:25 | 51.57821 | 19.38820 | 24486 ft | 410 kts | 92° |
| 2026-05-06 10:26 | 51.57856 | 19.43348 | 24043 ft | 407 kts | 91° |
| 2026-05-06 10:26 | 51.57890 | 19.47918 | 23591 ft | 404 kts | 91° |
| 2026-05-06 10:26 | 51.57922 | 19.52404 | 23146 ft | 401 kts | 91° |
| 2026-05-06 10:26 | 51.57952 | 19.56877 | 22703 ft | 398 kts | 91° |
| 2026-05-06 10:27 | 51.57981 | 19.61313 | 22262 ft | 396 kts | 92° |
| 2026-05-06 10:27 | 51.58007 | 19.65751 | 21816 ft | 393 kts | 92° |
| 2026-05-06 10:27 | 51.58031 | 19.70088 | 21382 ft | 391 kts | 93° |
| 2026-05-06 10:27 | 51.58053 | 19.74442 | 20943 ft | 388 kts | 93° |
| 2026-05-06 10:28 | 51.58071 | 19.78726 | 20504 ft | 386 kts | 93° |
| 2026-05-06 10:28 | 51.58089 | 19.83068 | 20058 ft | 384 kts | 93° |
| 2026-05-06 10:28 | 51.58104 | 19.87273 | 19626 ft | 382 kts | 93° |
| 2026-05-06 10:28 | 51.58119 | 19.91554 | 19185 ft | 380 kts | 93° |
| 2026-05-06 10:29 | 51.58123 | 19.95794 | 18745 ft | 378 kts | 94° |
| 2026-05-06 10:29 | 51.58020 | 19.99957 | 18551 ft | 383 kts | 96° |
| 2026-05-06 10:29 | 51.57882 | 20.04305 | 18576 ft | 387 kts | 96° |
| 2026-05-06 10:29 | 51.57742 | 20.08629 | 18517 ft | 389 kts | 96° |
| 2026-05-06 10:30 | 51.57604 | 20.12916 | 18063 ft | 387 kts | 96° |
| 2026-05-06 10:30 | 51.57464 | 20.17227 | 17601 ft | 385 kts | 96° |
| 2026-05-06 10:30 | 51.57323 | 20.21513 | 17145 ft | 383 kts | 96° |
| 2026-05-06 10:30 | 51.57219 | 20.25778 | 16689 ft | 381 kts | 90° |
| 2026-05-06 10:31 | 51.57800 | 20.29867 | 16298 ft | 382 kts | 65° |
| 2026-05-06 10:31 | 51.59419 | 20.33250 | 15964 ft | 380 kts | 38° |
| 2026-05-06 10:31 | 51.61736 | 20.35205 | 15653 ft | 375 kts | 12° |
| 2026-05-06 10:31 | 51.64286 | 20.35800 | 15372 ft | 370 kts | 2° |
| 2026-05-06 10:32 | 51.66831 | 20.36170 | 14690 ft | 370 kts | 2° |
| 2026-05-06 10:32 | 51.69405 | 20.36604 | 13562 ft | 374 kts | 4° |
| 2026-05-06 10:32 | 51.71958 | 20.37111 | 12557 ft | 372 kts | 5° |
| 2026-05-06 10:32 | 51.74477 | 20.37662 | 11631 ft | 367 kts | 5° |
| 2026-05-06 10:33 | 51.77000 | 20.38244 | 10925 ft | 366 kts | 5° |
| 2026-05-06 10:33 | 51.79520 | 20.38841 | 10448 ft | 361 kts | 6° |
| 2026-05-06 10:33 | 51.81988 | 20.39435 | 10088 ft | 353 kts | 6° |
| 2026-05-06 10:33 | 51.84372 | 20.40014 | 9946 ft | 339 kts | 5° |
| 2026-05-06 10:34 | 51.86635 | 20.40566 | 9824 ft | 326 kts | 5° |
| 2026-05-06 10:34 | 51.88842 | 20.41103 | 9600 ft | 318 kts | 5° |
| 2026-05-06 10:34 | 51.91003 | 20.41625 | 9314 ft | 311 kts | 5° |
| 2026-05-06 10:34 | 51.93145 | 20.42143 | 8928 ft | 310 kts | 5° |
| 2026-05-06 10:35 | 51.95265 | 20.42658 | 8555 ft | 308 kts | 5° |
| 2026-05-06 10:35 | 51.97386 | 20.43174 | 8198 ft | 305 kts | 6° |
| 2026-05-06 10:35 | 51.99485 | 20.43687 | 7849 ft | 303 kts | 6° |
| 2026-05-06 10:35 | 52.01556 | 20.44193 | 7496 ft | 301 kts | 6° |
| 2026-05-06 10:36 | 52.03623 | 20.44700 | 7151 ft | 298 kts | 6° |
| 2026-05-06 10:36 | 52.05654 | 20.45199 | 6808 ft | 296 kts | 6° |
| 2026-05-06 10:36 | 52.07681 | 20.45695 | 6469 ft | 294 kts | 6° |
| 2026-05-06 10:36 | 52.09697 | 20.46191 | 6134 ft | 291 kts | 6° |
| 2026-05-06 10:37 | 52.11689 | 20.46681 | 5811 ft | 289 kts | 6° |
| 2026-05-06 10:37 | 52.13649 | 20.47163 | 5484 ft | 286 kts | 6° |
| 2026-05-06 10:37 | 52.15617 | 20.47647 | 5176 ft | 283 kts | 6° |
| 2026-05-06 10:37 | 52.17519 | 20.48118 | 5076 ft | 270 kts | 6° |
| 2026-05-06 10:38 | 52.19350 | 20.48577 | 4983 ft | 259 kts | 8° |
| 2026-05-06 10:38 | 52.20972 | 20.49619 | 4835 ft | 251 kts | 40° |
| 2026-05-06 10:38 | 52.21982 | 20.51848 | 4579 ft | 244 kts | 66° |
| 2026-05-06 10:38 | 52.22641 | 20.54375 | 4378 ft | 240 kts | 70° |
| 2026-05-06 10:39 | 52.23275 | 20.56883 | 4159 ft | 239 kts | 68° |
| 2026-05-06 10:39 | 52.23949 | 20.59322 | 3927 ft | 236 kts | 66° |
| 2026-05-06 10:39 | 52.24660 | 20.61717 | 3689 ft | 232 kts | 64° |
| 2026-05-06 10:39 | 52.25293 | 20.64074 | 3466 ft | 225 kts | 81° |
| 2026-05-06 10:40 | 52.25213 | 20.66525 | 3315 ft | 216 kts | 114° |
| 2026-05-06 10:40 | 52.24593 | 20.68746 | 3277 ft | 214 kts | 121° |
| 2026-05-06 10:40 | 52.23915 | 20.70867 | 3167 ft | 207 kts | 121° |
| 2026-05-06 10:40 | 52.23299 | 20.72884 | 3139 ft | 195 kts | 121° |
| 2026-05-06 10:41 | 52.22722 | 20.74865 | 2885 ft | 192 kts | 119° |
| 2026-05-06 10:41 | 52.22163 | 20.76837 | 2630 ft | 192 kts | 119° |
| 2026-05-06 10:41 | 52.21609 | 20.78815 | 2371 ft | 188 kts | 118° |
| 2026-05-06 10:41 | 52.21088 | 20.80682 | 2120 ft | 175 kts | 119° |
| 2026-05-06 10:42 | 52.20603 | 20.82412 | 1901 ft | 162 kts | 119° |
| 2026-05-06 10:42 | 52.20157 | 20.84001 | 1699 ft | 148 kts | 120° |
| 2026-05-06 10:42 | 52.19731 | 20.85512 | 1531 ft | 142 kts | 120° |
| 2026-05-06 10:42 | 52.19320 | 20.86969 | 1349 ft | 142 kts | 120° |
| 2026-05-06 10:43 | 52.18911 | 20.88416 | 1184 ft | 139 kts | 119° |
| 2026-05-06 10:43 | 52.18514 | 20.89854 | 976 ft | 138 kts | 119° |
| 2026-05-06 10:43 | 52.18105 | 20.91287 | 760 ft | 140 kts | 118° |
| 2026-05-06 10:44 | 52.17292 | 20.94168 | 456 ft | 140 kts | 117° |
| 2026-05-06 10:44 | 52.16894 | 20.95584 | 355 ft | 131 kts | 116° |
| 2026-05-06 10:44 | 52.16558 | 20.96761 | 333 ft | 94 kts | 116° |
| 2026-05-06 10:44 | 52.16357 | 20.97478 | 337 ft | 44 kts | 115° |
| 2026-05-06 10:45 | 52.16304 | 20.97705 | 334 ft | 11 kts | 75° |
| 2026-05-06 10:45 | 52.16363 | 20.97769 | 334 ft | 8 kts | 24° |
| 2026-05-06 10:45 | 52.16419 | 20.97808 | 336 ft | 8 kts | 13° |
| 2026-05-06 10:45 | 52.16465 | 20.97761 | 336 ft | 8 kts | 295° |
| 2026-05-06 10:46 | 52.16490 | 20.97667 | 337 ft | 9 kts | 294° |
| 2026-05-06 10:46 | 52.16521 | 20.97556 | 337 ft | 12 kts | 295° |
| 2026-05-06 10:46 | 52.16561 | 20.97414 | 337 ft | 15 kts | 294° |
| 2026-05-06 10:46 | 52.16609 | 20.97241 | 337 ft | 18 kts | 294° |
| 2026-05-06 10:47 | 52.16664 | 20.97056 | 335 ft | 16 kts | 304° |
| 2026-05-06 10:47 | 52.16767 | 20.96943 | 333 ft | 19 kts | 330° |
| 2026-05-06 10:47 | 52.16896 | 20.96829 | 331 ft | 22 kts | 332° |
| 2026-05-06 10:47 | 52.17038 | 20.96705 | 331 ft | 23 kts | 332° |
| 2026-05-06 10:48 | 52.17176 | 20.96587 | 334 ft | 21 kts | 332° |
| 2026-05-06 10:48 | 52.17310 | 20.96471 | 334 ft | 21 kts | 331° |
| 2026-05-06 10:48 | 52.17407 | 20.96397 | 334 ft | 9 kts | 4° |
| 2026-05-06 10:48 | 52.17437 | 20.96484 | 334 ft | 8 kts | 68° |
| 2026-05-06 10:49 | 52.17452 | 20.96533 | 334 ft | 3 kts | 59° |
| 2026-05-06 10:49 | 52.17474 | 20.96578 | 335 ft | 6 kts | 46° |
| 2026-05-06 10:49 | 52.17509 | 20.96649 | 337 ft | 9 kts | 57° |
| 2026-05-06 10:49 | 52.17551 | 20.96755 | 339 ft | 12 kts | 57° |
| 2026-05-06 10:50 | 52.17600 | 20.96880 | 340 ft | 13 kts | 58° |
| 2026-05-06 10:50 | 52.17610 | 20.96958 | 341 ft | 5 kts | 127° |
| 2026-05-06 10:50 | 52.17572 | 20.96999 | 342 ft | 7 kts | 151° |
| 2026-05-06 10:50 | 52.17533 | 20.96998 | 341 ft | 7 kts | 230° |
| 2026-05-06 10:51 | 52.17515 | 20.96944 | 340 ft | 2 kts | 242° |
| 2026-05-06 10:51 | 52.17511 | 20.96932 | 340 ft | 0 kts | 240° |
| 2026-05-06 10:51 | 52.17509 | 20.96927 | 340 ft | 0 kts | 240° |